Time;durP1;ratioP1;P1;durP2;ratioP2;P2;SDS_P1;SDS_P2;PMS_P1;PMS_P2;Temp;Humidity;BMP_temperature;BMP_pressure;BME280_temperature;BME280_humidity;BME280_pressure;Samples;Min_cycle;Max_cycle;Signal;HPM_P1;HPM_P2
2022/07/03 00:01:16;;;;;;;1.83;1.07;;;25.40;47.80;;;;;;5073164;27;20610;-47
2022/07/03 00:03:56;;;;;;;2.30;1.60;;;25.40;47.80;;;;;;5087722;27;20550;-48
2022/07/03 00:06:37;;;;;;;1.20;1.10;;;25.40;47.70;;;;;;5059678;28;20941;-46
2022/07/03 00:09:19;;;;;;;1.10;1.00;;;25.40;47.80;;;;;;5062836;28;20849;-47
2022/07/03 00:12:00;;;;;;;1.37;1.20;;;25.40;47.80;;;;;;5088666;27;20566;-47
2022/07/03 00:14:40;;;;;;;1.63;1.10;;;25.40;47.80;;;;;;5080437;28;21127;-47
2022/07/03 00:17:21;;;;;;;1.40;0.90;;;25.30;47.70;;;;;;5084928;28;20593;-49
2022/07/03 00:20:01;;;;;;;1.00;0.90;;;25.40;47.70;;;;;;5096444;27;20601;-49
2022/07/03 00:22:46;;;;;;;1.40;1.30;;;25.40;47.70;;;;;;5106279;27;20534;-48
2022/07/03 00:25:26;;;;;;;1.17;1.00;;;25.40;47.70;;;;;;5059798;28;20543;-48
2022/07/03 00:28:07;;;;;;;1.63;1.00;;;25.40;47.80;;;;;;5118655;27;20547;-48
2022/07/03 00:30:49;;;;;;;1.40;1.17;;;25.40;47.70;;;;;;5065039;27;20555;-48
2022/07/03 00:33:34;;;;;;;1.53;1.33;;;25.40;47.80;;;;;;5087651;28;20569;-49
2022/07/03 00:36:15;;;;;;;2.37;1.50;;;25.40;47.80;;;;;;5060984;27;20825;-47
2022/07/03 00:38:56;;;;;;;1.20;1.03;;;25.30;47.80;;;;;;5086354;28;20601;-48
2022/07/03 00:41:37;;;;;;;3.70;1.80;;;25.40;47.90;;;;;;5077825;27;20545;-48
2022/07/03 00:44:19;;;;;;;1.73;1.40;;;25.40;47.80;;;;;;5087408;27;20577;-48
2022/07/03 00:47:03;;;;;;;1.47;1.23;;;25.40;47.90;;;;;;5071545;27;20529;-48
2022/07/03 00:49:46;;;;;;;1.47;1.10;;;25.40;47.90;;;;;;5083849;27;20536;-47
2022/07/03 00:52:28;;;;;;;1.57;1.40;;;25.40;47.80;;;;;;5084721;27;20569;-48
2022/07/03 00:55:16;;;;;;;3.40;1.57;;;25.40;47.90;;;;;;5082019;27;20541;-47
2022/07/03 00:57:58;;;;;;;1.60;1.30;;;25.40;47.90;;;;;;5107238;27;21137;-47
2022/07/03 01:00:40;;;;;;;1.70;1.20;;;25.30;47.90;;;;;;5066503;28;20608;-47
2022/07/03 01:03:27;;;;;;;1.37;1.07;;;25.30;47.90;;;;;;5072496;28;21106;-48
2022/07/03 01:06:14;;;;;;;1.87;1.43;;;25.30;47.80;;;;;;5058635;27;20545;-48
2022/07/03 01:09:00;;;;;;;1.30;1.10;;;25.30;48.00;;;;;;5085183;27;20535;-48
2022/07/03 01:11:48;;;;;;;1.37;1.27;;;25.30;47.90;;;;;;5056824;27;20600;-47
2022/07/03 01:14:43;;;;;;;1.90;1.10;;;25.30;48.00;;;;;;5083531;28;20585;-47
2022/07/03 01:17:27;;;;;;;1.30;1.20;;;25.30;48.00;;;;;;5084479;27;20581;-48
2022/07/03 01:20:09;;;;;;;1.30;1.20;;;25.30;48.00;;;;;;5091221;27;20540;-47
2022/07/03 01:22:55;;;;;;;1.43;1.10;;;25.30;47.90;;;;;;5064858;27;20593;-47
2022/07/03 01:25:43;;;;;;;1.73;1.50;;;25.30;47.80;;;;;;5085127;27;20543;-48
2022/07/03 01:28:25;;;;;;;2.40;1.60;;;25.30;47.80;;;;;;5111998;27;20547;-46
2022/07/03 01:31:07;;;;;;;1.60;1.50;;;25.30;47.90;;;;;;5072944;27;20603;-49
2022/07/03 01:33:52;;;;;;;2.30;1.50;;;25.30;47.80;;;;;;5130543;27;20527;-48
2022/07/03 01:36:34;;;;;;;1.73;1.40;;;25.30;47.90;;;;;;5059274;27;21153;-48
2022/07/03 01:39:17;;;;;;;1.70;1.60;;;25.30;47.90;;;;;;5084574;28;21119;-47
2022/07/03 01:42:19;;;;;;;1.90;1.60;;;25.30;47.90;;;;;;5087403;28;20918;-48
2022/07/03 01:45:00;;;;;;;1.80;1.70;;;25.30;47.80;;;;;;5111222;27;20595;-48
2022/07/03 01:47:45;;;;;;;1.87;1.23;;;25.30;48.00;;;;;;5083800;28;20579;-48
2022/07/03 01:50:27;;;;;;;2.20;1.47;;;25.30;48.00;;;;;;5070925;28;21056;-48
2022/07/03 01:53:09;;;;;;;3.10;1.80;;;25.30;47.80;;;;;;5123542;27;20924;-46
2022/07/03 01:55:52;;;;;;;2.50;1.70;;;25.30;47.80;;;;;;5122731;27;20552;-48
2022/07/03 01:58:33;;;;;;;2.80;1.40;;;25.30;47.90;;;;;;5111120;27;20518;-47
2022/07/03 02:01:21;;;;;;;1.60;1.50;;;25.30;47.90;;;;;;5054701;27;20538;-47
2022/07/03 02:04:05;;;;;;;1.70;1.53;;;25.30;47.80;;;;;;5107415;27;20576;-48
2022/07/03 02:06:57;;;;;;;1.90;1.20;;;25.30;47.80;;;;;;5048134;28;20646;-49
2022/07/03 02:09:48;;;;;;;2.10;1.70;;;25.30;47.80;;;;;;5075491;27;21054;-48
2022/07/03 02:12:37;;;;;;;1.40;1.23;;;25.30;47.90;;;;;;5088308;27;21096;-48
2022/07/03 02:15:26;;;;;;;1.60;1.50;;;25.30;47.90;;;;;;5071230;28;20596;-46
2022/07/03 02:18:17;;;;;;;1.53;1.30;;;25.30;48.00;;;;;;5082746;27;20527;-48
2022/07/03 02:21:14;;;;;;;2.47;1.40;;;25.30;47.90;;;;;;5060168;27;21127;-47
2022/07/03 02:24:12;;;;;;;1.73;1.30;;;25.30;47.90;;;;;;5088074;27;20531;-48
2022/07/03 02:27:03;;;;;;;1.43;1.30;;;25.30;47.90;;;;;;5131855;27;20549;-48
2022/07/03 02:29:48;;;;;;;2.20;1.50;;;25.20;47.80;;;;;;5084144;27;20528;-47
2022/07/03 02:32:31;;;;;;;1.47;1.37;;;25.30;47.90;;;;;;5086802;27;20925;-48
2022/07/03 02:35:17;;;;;;;2.00;1.80;;;25.20;47.80;;;;;;5065506;28;20617;-48
2022/07/03 02:38:04;;;;;;;1.73;1.40;;;25.30;47.90;;;;;;5123163;27;20607;-48
2022/07/03 02:40:54;;;;;;;1.20;1.10;;;25.30;47.90;;;;;;5066599;27;20608;-48
2022/07/03 02:43:42;;;;;;;2.60;1.27;;;25.20;47.90;;;;;;5129380;27;21146;-48
2022/07/03 02:46:50;;;;;;;1.90;1.50;;;25.20;47.90;;;;;;5074473;27;1212776;-48
2022/07/03 02:49:43;;;;;;;2.13;1.57;;;25.20;47.90;;;;;;5109884;27;20601;-48
2022/07/03 02:52:31;;;;;;;1.83;1.47;;;25.20;47.80;;;;;;5099086;22;20573;-46
2022/07/03 02:55:39;;;;;;;1.23;1.13;;;25.20;47.90;;;;;;5078230;27;20645;-47
2022/07/03 02:58:39;;;;;;;1.53;1.43;;;25.20;48.10;;;;;;5078336;27;20531;-48
2022/07/03 03:01:37;;;;;;;2.30;1.50;;;25.20;48.00;;;;;;5110857;27;20545;-51
2022/07/03 03:04:23;;;;;;;2.30;1.30;;;25.20;47.90;;;;;;5087778;27;20572;-47
2022/07/03 03:07:08;;;;;;;1.97;1.37;;;25.20;48.00;;;;;;5087339;27;20566;-48
2022/07/03 03:09:49;;;;;;;1.10;1.00;;;25.20;48.00;;;;;;5052835;27;20536;-47
2022/07/03 03:12:36;;;;;;;1.90;1.70;;;25.20;48.10;;;;;;5088243;27;20640;-49
2022/07/03 03:15:21;;;;;;;1.43;1.30;;;25.20;48.10;;;;;;5085642;27;20569;-49
2022/07/03 03:18:05;;;;;;;1.97;1.87;;;25.20;48.00;;;;;;5113219;27;21242;-47
2022/07/03 03:20:49;;;;;;;2.97;1.60;;;25.10;49.00;;;;;;5066811;27;20546;-48
2022/07/03 03:23:43;;;;;;;1.83;1.40;;;25.20;48.00;;;;;;5077616;28;20537;-47
2022/07/03 03:26:25;;;;;;;2.30;1.20;;;25.20;47.90;;;;;;5136180;27;20539;-48
2022/07/03 03:29:05;;;;;;;2.00;1.40;;;25.20;48.00;;;;;;5087421;27;20581;-48
2022/07/03 03:31:46;;;;;;;1.73;1.63;;;25.20;48.00;;;;;;5067112;27;20599;-49
2022/07/03 03:34:27;;;;;;;3.10;1.53;;;25.20;47.90;;;;;;5122220;27;20607;-50
2022/07/03 03:37:07;;;;;;;1.70;1.60;;;25.10;48.00;;;;;;5087679;28;20512;-47
2022/07/03 03:39:48;;;;;;;1.23;1.13;;;25.10;47.90;;;;;;5062045;27;20594;-48
2022/07/03 03:42:29;;;;;;;1.73;1.57;;;25.10;47.90;;;;;;5087972;27;20660;-46
2022/07/03 03:45:11;;;;;;;2.50;1.30;;;25.10;47.90;;;;;;5126431;27;20898;-48
2022/07/03 03:47:52;;;;;;;2.80;1.40;;;25.10;48.00;;;;;;5102384;27;21052;-48
2022/07/03 03:50:33;;;;;;;1.43;1.33;;;25.10;47.80;;;;;;5067219;28;20584;-49
2022/07/03 03:53:16;;;;;;;2.43;1.63;;;25.10;47.70;;;;;;5128549;27;20586;-50
2022/07/03 03:56:00;;;;;;;1.80;1.40;;;25.10;47.90;;;;;;5073409;27;1239301;-47
2022/07/03 03:58:43;;;;;;;1.37;1.27;;;25.10;47.80;;;;;;5044078;28;20544;-49
2022/07/03 04:01:23;;;;;;;1.70;1.60;;;25.10;47.80;;;;;;5070525;27;20623;-49
2022/07/03 04:04:05;;;;;;;1.77;1.40;;;25.10;49.10;;;;;;5087492;28;20586;-49
2022/07/03 04:06:47;;;;;;;1.50;1.40;;;25.10;47.90;;;;;;5059140;27;20555;-47
2022/07/03 04:09:28;;;;;;;1.67;1.40;;;25.10;47.80;;;;;;5116126;27;20577;-47
2022/07/03 04:12:09;;;;;;;2.10;1.67;;;25.10;47.90;;;;;;5088016;28;20989;-47
2022/07/03 04:14:51;;;;;;;2.70;1.90;;;25.10;47.90;;;;;;5113266;27;20945;-48
2022/07/03 04:17:33;;;;;;;1.97;1.53;;;25.10;47.90;;;;;;5084398;27;21335;-50
2022/07/03 04:20:13;;;;;;;1.93;1.57;;;25.10;47.80;;;;;;5092918;27;20591;-49
2022/07/03 04:22:55;;;;;;;2.60;1.70;;;25.10;47.90;;;;;;5124829;27;20569;-46
2022/07/03 04:25:36;;;;;;;1.50;1.23;;;25.00;47.80;;;;;;5064856;27;20538;-48
2022/07/03 04:28:16;;;;;;;2.23;1.57;;;25.10;47.90;;;;;;5087235;27;20527;-49
2022/07/03 04:31:00;;;;;;;2.63;1.67;;;25.00;47.80;;;;;;5061190;27;20549;-47
2022/07/03 04:33:43;;;;;;;2.07;1.37;;;25.00;47.80;;;;;;5109435;27;21033;-48
2022/07/03 04:36:26;;;;;;;2.90;1.10;;;25.00;47.80;;;;;;5053296;27;20596;-48
2022/07/03 04:39:08;;;;;;;1.57;1.47;;;25.00;47.80;;;;;;5086239;28;20589;-49
2022/07/03 04:41:48;;;;;;;2.17;1.20;;;25.00;47.90;;;;;;5070308;28;20529;-48
2022/07/03 04:44:29;;;;;;;3.13;1.50;;;25.00;47.90;;;;;;5132152;27;20537;-50
2022/07/03 04:47:09;;;;;;;2.20;1.10;;;25.00;47.90;;;;;;5086420;27;20528;-68
2022/07/03 04:49:50;;;;;;;2.27;1.40;;;25.00;48.00;;;;;;5075360;27;20531;-49
2022/07/03 04:52:30;;;;;;;2.03;1.37;;;25.00;47.90;;;;;;5086907;27;20980;-46
2022/07/03 04:55:12;;;;;;;1.93;1.40;;;25.00;47.80;;;;;;5115338;27;20535;-47
2022/07/03 04:57:53;;;;;;;3.33;1.53;;;25.00;47.90;;;;;;5086592;28;20585;-48
2022/07/03 05:00:33;;;;;;;2.87;1.30;;;25.00;47.90;;;;;;5077594;27;20590;-50
2022/07/03 05:03:14;;;;;;;1.20;1.10;;;25.00;47.80;;;;;;5121724;27;20601;-48
2022/07/03 05:05:56;;;;;;;1.47;1.37;;;24.90;47.80;;;;;;5114009;27;20569;-51
2022/07/03 05:08:37;;;;;;;3.87;1.50;;;24.90;47.70;;;;;;5068276;27;20605;-47
2022/07/03 05:11:17;;;;;;;2.00;1.20;;;24.90;48.40;;;;;;5070833;27;20663;-48
2022/07/03 05:13:57;;;;;;;1.23;1.13;;;24.90;47.70;;;;;;5139314;27;1219340;-48
2022/07/03 05:16:38;;;;;;;1.37;1.27;;;24.90;47.50;;;;;;5052676;27;20619;-49
2022/07/03 05:19:20;;;;;;;1.40;1.30;;;24.90;47.60;;;;;;5088153;28;20580;-47
2022/07/03 05:22:01;;;;;;;2.20;1.40;;;24.90;47.50;;;;;;5088896;27;21054;-49
2022/07/03 05:24:42;;;;;;;1.40;1.30;;;24.90;47.50;;;;;;5100596;27;20607;-48
2022/07/03 05:27:24;;;;;;;1.33;1.23;;;24.90;47.40;;;;;;5129099;27;20582;-47
2022/07/03 05:30:04;;;;;;;2.17;1.50;;;24.90;47.40;;;;;;5071422;28;20535;-47
2022/07/03 05:32:45;;;;;;;2.40;1.27;;;24.90;47.40;;;;;;5128768;27;20578;-68
2022/07/03 05:35:25;;;;;;;1.77;1.20;;;24.90;47.30;;;;;;5119749;27;20546;-48
2022/07/03 05:38:06;;;;;;;1.63;1.40;;;24.90;47.40;;;;;;5126255;27;21024;-49
2022/07/03 05:40:46;;;;;;;1.60;1.27;;;24.90;47.40;;;;;;5107458;27;20546;-48
2022/07/03 05:43:26;;;;;;;2.37;1.40;;;24.90;47.20;;;;;;5087365;27;20534;-48
2022/07/03 05:46:06;;;;;;;1.93;1.40;;;24.90;47.40;;;;;;5066018;27;20674;-48
2022/07/03 05:48:47;;;;;;;1.87;1.53;;;24.90;47.40;;;;;;5085600;28;20590;-48
2022/07/03 05:51:27;;;;;;;2.20;1.13;;;24.90;47.20;;;;;;5070068;28;21063;-48
2022/07/03 05:54:08;;;;;;;1.80;1.50;;;24.80;49.70;;;;;;5129553;27;21109;-48
2022/07/03 05:56:48;;;;;;;1.47;1.37;;;24.80;47.30;;;;;;5061493;27;20635;-50
2022/07/03 05:59:29;;;;;;;1.83;1.70;;;24.80;47.20;;;;;;5085712;28;20565;-47
2022/07/03 06:02:11;;;;;;;3.60;1.47;;;24.80;47.20;;;;;;5085305;28;20601;-48
2022/07/03 06:04:51;;;;;;;2.03;1.40;;;24.80;47.20;;;;;;5116917;27;20587;-50
2022/07/03 06:07:32;;;;;;;2.20;1.30;;;24.80;47.20;;;;;;5087037;28;21104;-48
2022/07/03 06:10:13;;;;;;;3.30;1.20;;;24.80;47.30;;;;;;5122636;27;21065;-48
2022/07/03 06:12:55;;;;;;;1.60;1.50;;;24.80;47.20;;;;;;5089315;28;20577;-48
2022/07/03 06:15:37;;;;;;;2.27;1.70;;;24.80;47.20;;;;;;5088746;27;20553;-48
2022/07/03 06:18:17;;;;;;;1.63;1.37;;;24.80;47.20;;;;;;5104976;27;20584;-48
2022/07/03 06:20:59;;;;;;;1.97;1.77;;;24.80;47.20;;;;;;5089663;27;21124;-49
2022/07/03 06:23:40;;;;;;;1.40;1.30;;;24.80;47.00;;;;;;5137534;27;20533;-47
2022/07/03 06:26:27;;;;;;;2.43;1.43;;;24.80;47.00;;;;;;5057941;27;20549;-68
2022/07/03 06:29:08;;;;;;;4.70;1.53;;;24.80;47.00;;;;;;5085807;28;20527;-47
2022/07/03 06:31:49;;;;;;;1.77;1.60;;;24.80;46.80;;;;;;5028900;28;20520;-68
2022/07/03 06:34:31;;;;;;;2.83;1.90;;;24.80;46.70;;;;;;5068895;27;20656;-50
2022/07/03 06:37:14;;;;;;;1.30;1.20;;;24.80;46.40;;;;;;5091085;28;21004;-46
2022/07/03 06:39:55;;;;;;;1.67;1.57;;;24.80;46.40;;;;;;5082035;27;21137;-49
2022/07/03 06:42:35;;;;;;;4.40;1.40;;;24.80;46.30;;;;;;5130464;27;20519;-50
2022/07/03 06:45:18;;;;;;;1.80;1.37;;;24.80;46.60;;;;;;5121042;27;20647;-47
2022/07/03 06:47:58;;;;;;;2.37;1.80;;;24.80;46.30;;;;;;5080146;28;21127;-49
2022/07/03 06:50:38;;;;;;;1.90;1.53;;;24.80;46.40;;;;;;5073055;27;20684;-48
2022/07/03 06:53:19;;;;;;;1.60;1.20;;;24.80;46.20;;;;;;5129823;27;21164;-49
2022/07/03 06:56:01;;;;;;;2.43;1.80;;;24.80;46.30;;;;;;5073232;28;21209;-48
2022/07/03 06:58:42;;;;;;;2.37;1.57;;;24.80;46.40;;;;;;5089988;28;20569;-48
2022/07/03 07:01:21;;;;;;;2.20;1.43;;;24.80;46.40;;;;;;5074053;27;20956;-49
2022/07/03 07:04:03;;;;;;;2.70;1.70;;;24.80;46.40;;;;;;5131335;27;21109;-48
2022/07/03 07:06:48;;;;;;;2.70;1.37;;;24.80;46.40;;;;;;5067832;27;21050;-67
2022/07/03 07:09:28;;;;;;;1.70;1.60;;;24.80;46.40;;;;;;5123663;27;20537;-47
2022/07/03 07:12:10;;;;;;;3.60;1.53;;;24.80;46.60;;;;;;5133908;27;20551;-46
2022/07/03 07:14:50;;;;;;;1.87;1.17;;;24.80;46.70;;;;;;5086996;27;21157;-47
2022/07/03 07:17:30;;;;;;;1.90;1.23;;;24.80;46.80;;;;;;5089055;27;20647;-47
2022/07/03 07:20:12;;;;;;;1.97;1.60;;;24.80;46.90;;;;;;5092289;27;20556;-47
2022/07/03 07:22:53;;;;;;;2.00;1.43;;;24.80;47.10;;;;;;5078648;28;20532;-48
2022/07/03 07:25:35;;;;;;;2.30;1.63;;;24.80;47.00;;;;;;5088952;27;20572;-47
2022/07/03 07:28:22;;;;;;;2.60;1.50;;;24.80;47.20;;;;;;5132745;27;20574;-46
2022/07/03 07:31:04;;;;;;;2.33;1.40;;;24.80;47.20;;;;;;5083971;27;20557;-47
2022/07/03 07:33:45;;;;;;;1.30;1.13;;;24.80;47.20;;;;;;5133059;27;20602;-47
2022/07/03 07:36:26;;;;;;;1.57;1.47;;;24.80;47.20;;;;;;5065680;27;20575;-46
2022/07/03 07:39:10;;;;;;;2.33;1.50;;;24.80;47.20;;;;;;5087210;27;20611;-47
2022/07/03 07:41:51;;;;;;;1.20;1.10;;;24.80;47.20;;;;;;5091809;28;20936;-47
2022/07/03 07:44:31;;;;;;;1.90;1.50;;;24.80;47.20;;;;;;5084903;28;20535;-47
2022/07/03 07:47:12;;;;;;;1.60;1.50;;;24.80;47.40;;;;;;5086949;28;20527;-67
2022/07/03 07:49:52;;;;;;;1.83;1.30;;;24.80;47.30;;;;;;5107635;22;20981;-67
2022/07/03 07:52:33;;;;;;;1.83;1.07;;;24.80;47.30;;;;;;5118686;27;20591;-48
2022/07/03 07:55:15;;;;;;;1.73;1.33;;;24.80;47.30;;;;;;5105790;27;20574;-48
2022/07/03 07:57:56;;;;;;;2.87;1.60;;;24.80;47.50;;;;;;5127554;27;21074;-53
2022/07/03 08:00:36;;;;;;;1.83;1.20;;;24.80;47.40;;;;;;5049273;28;20536;-47
2022/07/03 08:06:18;;;;;;;1.67;1.43;;;24.80;47.40;;;;;;5077163;27;20995;-47
2022/07/03 08:09:05;;;;;;;3.07;1.20;;;24.80;47.40;;;;;;5086288;28;20551;-48
2022/07/03 08:11:45;;;;;;;2.43;1.43;;;24.80;47.40;;;;;;5076614;27;20549;-48
2022/07/03 08:14:25;;;;;;;1.87;1.40;;;24.80;47.50;;;;;;5127680;27;20599;-45
2022/07/03 08:17:07;;;;;;;2.83;1.40;;;24.80;47.50;;;;;;5084018;27;20531;-49
2022/07/03 08:19:48;;;;;;;1.77;1.47;;;24.80;47.50;;;;;;5119880;27;21094;-47
2022/07/03 08:22:28;;;;;;;1.67;1.40;;;24.80;47.50;;;;;;5088049;28;20578;-47
2022/07/03 08:25:08;;;;;;;2.17;1.90;;;24.80;47.40;;;;;;5101965;27;20539;-48
2022/07/03 08:27:48;;;;;;;1.45;1.35;;;24.80;47.50;;;;;;5133819;27;1220989;-48
2022/07/03 08:30:29;;;;;;;2.10;1.40;;;24.80;47.40;;;;;;5058086;28;20657;-48
2022/07/03 08:33:08;;;;;;;2.97;1.60;;;24.80;47.40;;;;;;5088106;28;20573;-48
2022/07/03 08:35:48;;;;;;;1.30;1.20;;;24.80;47.40;;;;;;5084043;27;21087;-50
2022/07/03 08:38:33;;;;;;;2.20;1.27;;;24.80;47.20;;;;;;5126258;27;20603;-50
2022/07/03 08:41:15;;;;;;;2.13;1.37;;;24.80;47.30;;;;;;5072583;27;20889;-49
2022/07/03 08:43:57;;;;;;;1.40;1.30;;;24.80;47.30;;;;;;5129036;27;20928;-47
2022/07/03 08:46:39;;;;;;;1.27;1.17;;;24.80;47.40;;;;;;5058640;27;20632;-47
2022/07/03 08:49:20;;;;;;;4.60;1.37;;;24.80;47.40;;;;;;5087615;28;20520;-49
2022/07/03 08:52:02;;;;;;;1.70;0.97;;;24.80;47.50;;;;;;5087280;28;20520;-47
2022/07/03 08:54:43;;;;;;;1.20;0.90;;;24.80;47.50;;;;;;5079673;28;20585;-46
2022/07/03 08:57:27;;;;;;;1.20;1.10;;;24.80;47.50;;;;;;5082134;22;20580;-47
2022/07/03 09:00:10;;;;;;;1.30;1.20;;;24.80;47.50;;;;;;5075327;27;20542;-49
2022/07/03 09:02:50;;;;;;;1.37;1.27;;;24.80;47.60;;;;;;5128036;27;20747;-49
2022/07/03 09:05:32;;;;;;;3.13;1.37;;;24.80;47.60;;;;;;5078594;27;20538;-48
2022/07/03 09:08:12;;;;;;;1.37;1.27;;;24.80;47.60;;;;;;5105021;27;20945;-49
2022/07/03 09:10:51;;;;;;;1.20;0.90;;;24.80;47.70;;;;;;5062092;28;20598;-49
2022/07/03 09:13:31;;;;;;;1.93;1.10;;;24.80;47.60;;;;;;5073405;27;20571;-48
2022/07/03 09:16:17;;;;;;;1.50;1.10;;;24.80;47.70;;;;;;5072319;27;20591;-47
2022/07/03 09:18:58;;;;;;;1.67;1.20;;;24.80;47.70;;;;;;5080693;27;21137;-49
2022/07/03 09:21:44;;;;;;;1.80;1.07;;;24.80;47.70;;;;;;5067464;28;20955;-48
2022/07/03 09:24:27;;;;;;;1.77;1.40;;;24.80;47.80;;;;;;5127099;27;20584;-47
2022/07/03 09:27:11;;;;;;;1.60;1.50;;;24.80;47.80;;;;;;5076315;27;20969;-47
2022/07/03 09:30:00;;;;;;;2.57;1.20;;;24.80;47.80;;;;;;5118996;27;20595;-48
2022/07/03 09:32:45;;;;;;;1.10;1.00;;;24.90;47.90;;;;;;5079240;28;20589;-49
2022/07/03 09:35:27;;;;;;;1.30;1.20;;;24.90;47.90;;;;;;5090869;27;20906;-49
2022/07/03 09:38:06;;;;;;;1.10;0.90;;;24.90;47.90;;;;;;5085036;27;20535;-49
2022/07/03 09:40:51;;;;;;;1.10;1.00;;;24.90;47.90;;;;;;5062338;28;20538;-48
2022/07/03 09:43:32;;;;;;;1.23;1.13;;;24.90;48.00;;;;;;5087708;27;21030;-49
2022/07/03 09:46:12;;;;;;;2.33;1.30;;;24.90;48.00;;;;;;5069077;27;20547;-48
2022/07/03 09:48:53;;;;;;;1.00;0.90;;;24.90;48.10;;;;;;5064497;28;20526;-48
2022/07/03 09:51:35;;;;;;;1.60;1.40;;;24.90;48.10;;;;;;5044798;27;21067;-52
2022/07/03 09:54:17;;;;;;;1.30;1.07;;;24.90;48.10;;;;;;5106102;27;20593;-48
2022/07/03 09:56:59;;;;;;;2.57;1.60;;;24.90;48.10;;;;;;5095315;27;20939;-49
2022/07/03 09:59:39;;;;;;;1.70;1.57;;;24.90;48.10;;;;;;5103243;27;20538;-48
2022/07/03 10:02:19;;;;;;;2.20;1.20;;;24.90;48.10;;;;;;5082024;27;20531;-49
2022/07/03 10:05:12;;;;;;;1.33;0.90;;;24.90;48.10;;;;;;5089571;27;20559;-47
2022/07/03 10:07:57;;;;;;;1.80;1.40;;;24.90;48.20;;;;;;5074313;27;20537;-48
2022/07/03 10:10:39;;;;;;;1.30;1.20;;;24.90;48.10;;;;;;5088593;27;21081;-47
2022/07/03 10:13:19;;;;;;;1.43;1.03;;;24.90;48.20;;;;;;5087428;28;20528;-49
2022/07/03 10:16:02;;;;;;;1.53;1.40;;;24.90;48.20;;;;;;5083633;27;20550;-48
2022/07/03 10:18:48;;;;;;;2.22;1.35;;;24.90;48.30;;;;;;5131950;27;1204661;-49
2022/07/03 10:21:29;;;;;;;1.83;1.20;;;24.90;48.30;;;;;;5069484;27;20605;-49
2022/07/03 10:24:11;;;;;;;1.13;1.03;;;24.90;48.30;;;;;;5078530;27;21112;-49
2022/07/03 10:26:52;;;;;;;1.30;1.20;;;24.90;48.20;;;;;;5058590;27;20552;-49
2022/07/03 10:29:33;;;;;;;1.33;1.10;;;24.90;48.10;;;;;;5097097;27;20519;-47
2022/07/03 10:32:15;;;;;;;1.83;1.20;;;24.90;48.10;;;;;;5087924;27;20577;-48
2022/07/03 10:34:55;;;;;;;4.93;1.30;;;24.90;48.20;;;;;;5110510;27;21057;-49
2022/07/03 10:37:46;;;;;;;3.10;1.20;;;24.90;48.20;;;;;;5126414;27;20505;-47
2022/07/03 10:46:39;;;;;;;2.13;1.30;;;24.90;48.40;;;;;;5059249;27;20561;-48
2022/07/03 10:49:20;;;;;;;2.20;1.30;;;24.90;48.30;;;;;;5108109;27;20568;-48
2022/07/03 10:52:04;;;;;;;2.00;1.20;;;24.90;48.30;;;;;;5087739;28;20585;-48
2022/07/03 10:54:52;;;;;;;1.70;1.17;;;25.00;48.40;;;;;;5118408;27;20593;-47
2022/07/03 10:57:32;;;;;;;2.03;1.20;;;25.00;48.40;;;;;;5086867;27;20515;-48
2022/07/03 11:00:20;;;;;;;2.07;1.40;;;24.90;48.40;;;;;;5077774;28;20541;-47
2022/07/03 11:03:00;;;;;;;1.30;1.10;;;25.00;48.30;;;;;;5084365;28;20589;-48
2022/07/03 11:05:41;;;;;;;1.40;1.30;;;25.00;48.40;;;;;;5056543;28;20598;-48
2022/07/03 11:08:21;;;;;;;0.90;0.80;;;25.00;48.30;;;;;;5099689;27;20565;-48
2022/07/03 11:14:21;;;;;;;1.73;1.33;;;25.00;48.50;;;;;;5127944;27;20524;-49
2022/07/03 11:17:20;;;;;;;1.70;1.40;;;25.00;48.50;;;;;;5093980;27;20549;-49
2022/07/03 11:23:14;;;;;;;1.50;1.40;;;25.00;48.40;;;;;;5082944;27;20606;-49
2022/07/03 11:25:58;;;;;;;1.50;1.40;;;25.00;48.40;;;;;;5062132;27;20596;-48
2022/07/03 11:28:52;;;;;;;2.27;1.20;;;25.00;48.40;;;;;;5086700;28;20916;-48
2022/07/03 11:31:33;;;;;;;1.20;1.10;;;25.00;48.50;;;;;;5069336;27;20542;-48
2022/07/03 11:34:20;;;;;;;1.70;1.47;;;25.00;48.50;;;;;;5090264;27;21069;-48
2022/07/03 11:37:01;;;;;;;2.10;1.30;;;25.00;48.40;;;;;;5146305;27;20573;-48
2022/07/03 11:39:44;;;;;;;0.83;0.83;;;25.10;48.40;;;;;;5073243;27;20951;-49
2022/07/03 11:42:25;;;;;;;1.37;1.27;;;25.10;48.60;;;;;;5127707;27;20582;-47
2022/07/03 11:45:06;;;;;;;2.87;1.10;;;25.10;48.60;;;;;;5077480;28;20538;-48
2022/07/03 11:47:47;;;;;;;1.43;1.10;;;25.10;48.60;;;;;;5086403;27;20583;-47
2022/07/03 11:50:38;;;;;;;2.30;1.50;;;25.10;48.70;;;;;;5102287;27;20591;-48
2022/07/03 11:53:24;;;;;;;1.70;1.30;;;25.10;48.50;;;;;;5082546;27;20541;-48
2022/07/03 11:56:06;;;;;;;1.60;1.40;;;25.10;48.40;;;;;;5073289;27;20618;-48
2022/07/03 11:58:47;;;;;;;1.30;1.20;;;25.10;48.60;;;;;;5086663;28;21111;-49
2022/07/03 12:01:32;;;;;;;1.50;1.20;;;25.10;48.60;;;;;;5080732;27;20555;-49
2022/07/03 12:04:14;;;;;;;1.83;1.10;;;25.10;48.70;;;;;;5109205;27;20584;-49
2022/07/03 12:06:59;;;;;;;2.10;1.20;;;25.10;48.40;;;;;;5106898;27;20828;-49
2022/07/03 12:09:40;;;;;;;1.90;1.27;;;25.10;48.30;;;;;;5096472;27;21137;-48
2022/07/03 12:12:25;;;;;;;1.60;1.30;;;25.10;48.30;;;;;;5127936;27;20521;-49
2022/07/03 12:15:07;;;;;;;2.10;1.30;;;25.20;48.40;;;;;;5071897;28;20594;-48
2022/07/03 12:17:47;;;;;;;1.30;1.20;;;25.20;48.50;;;;;;5080794;27;21054;-48
2022/07/03 12:20:29;;;;;;;1.07;0.97;;;25.10;48.50;;;;;;5076661;28;20954;-47
2022/07/03 12:23:08;;;;;;;1.90;1.30;;;25.20;48.60;;;;;;5109927;27;20592;-48
2022/07/03 12:25:52;;;;;;;2.03;1.30;;;25.20;48.30;;;;;;5098961;27;20547;-48
2022/07/03 12:28:33;;;;;;;1.70;1.60;;;25.20;48.30;;;;;;5063403;27;20607;-48
2022/07/03 12:31:14;;;;;;;0.80;0.80;;;25.30;48.30;;;;;;5072230;27;21071;-47
2022/07/03 12:33:54;;;;;;;1.40;1.30;;;25.20;48.40;;;;;;5126106;27;20536;-48
2022/07/03 12:36:34;;;;;;;1.30;1.20;;;25.20;48.30;;;;;;5089125;27;20973;-49
2022/07/03 12:39:14;;;;;;;1.20;1.10;;;25.20;48.20;;;;;;5125008;27;20758;-47
2022/07/03 12:41:55;;;;;;;1.90;1.23;;;25.30;48.20;;;;;;5128207;27;21088;-48
2022/07/03 12:44:35;;;;;;;2.20;2.00;;;25.30;48.00;;;;;;5095985;27;20531;-48
2022/07/03 12:47:17;;;;;;;1.07;0.97;;;25.20;47.90;;;;;;5082025;28;21035;-46
2022/07/03 12:50:02;;;;;;;1.10;1.00;;;25.30;48.00;;;;;;5074909;28;20582;-46
2022/07/03 12:52:52;;;;;;;1.17;0.80;;;25.30;48.10;;;;;;5126479;27;20555;-46
2022/07/03 12:55:33;;;;;;;1.63;1.40;;;25.30;48.30;;;;;;5089391;27;20598;-48
2022/07/03 13:01:26;;;;;;;1.50;1.40;;;25.30;48.20;;;;;;5069510;28;20591;-48
2022/07/03 13:04:08;;;;;;;1.17;1.07;;;25.30;48.00;;;;;;5107974;27;20526;-48
2022/07/03 13:07:00;;;;;;;1.67;1.57;;;25.30;48.10;;;;;;5067049;27;20544;-49
2022/07/03 13:09:41;;;;;;;1.77;1.40;;;25.40;48.30;;;;;;5096624;27;21106;-47
2022/07/03 13:12:23;;;;;;;4.57;1.20;;;25.30;48.10;;;;;;5105373;27;20608;-48
2022/07/03 13:15:09;;;;;;;1.80;1.30;;;25.40;48.20;;;;;;5086533;27;20951;-49
2022/07/03 13:18:01;;;;;;;1.20;1.10;;;25.40;48.10;;;;;;5080124;27;20595;-47
2022/07/03 13:20:42;;;;;;;1.10;1.00;;;25.40;48.00;;;;;;5076535;27;20540;-49
2022/07/03 13:23:22;;;;;;;1.97;1.37;;;25.40;47.90;;;;;;5083369;27;20589;-48
2022/07/03 13:26:01;;;;;;;1.13;1.03;;;25.40;47.70;;;;;;5094116;27;20536;-49
2022/07/03 13:28:41;;;;;;;1.13;0.90;;;25.40;47.80;;;;;;5087467;28;20524;-47
2022/07/03 13:31:21;;;;;;;1.17;1.07;;;25.40;47.80;;;;;;5090755;27;20590;-48
2022/07/03 13:34:01;;;;;;;1.50;1.20;;;25.40;47.90;;;;;;5124050;27;20526;-47
2022/07/03 13:36:42;;;;;;;1.93;1.13;;;25.40;47.90;;;;;;5067874;27;20587;-48
2022/07/03 13:39:23;;;;;;;1.10;1.00;;;25.40;47.70;;;;;;5078556;28;20593;-49
2022/07/03 13:42:05;;;;;;;1.20;1.10;;;25.40;47.80;;;;;;5087099;28;20523;-48
2022/07/03 13:44:45;;;;;;;1.10;1.00;;;25.50;47.60;;;;;;5120811;27;20519;-47
2022/07/03 13:47:25;;;;;;;2.00;1.20;;;25.50;47.90;;;;;;5103597;27;20526;-49
2022/07/03 13:50:05;;;;;;;1.50;1.20;;;25.50;49.10;;;;;;5118787;27;20881;-49
2022/07/03 13:52:46;;;;;;;2.60;1.30;;;25.50;47.70;;;;;;5084500;28;20577;-47
2022/07/03 13:55:30;;;;;;;1.93;1.13;;;25.50;47.80;;;;;;5061730;28;20908;-49
2022/07/03 13:58:11;;;;;;;2.03;0.93;;;25.50;47.90;;;;;;5087102;28;20535;-48
2022/07/03 14:00:52;;;;;;;1.73;1.10;;;25.50;47.70;;;;;;5075351;27;20606;-49
2022/07/03 14:03:33;;;;;;;1.20;0.83;;;25.60;47.70;;;;;;5077739;28;21050;-49
2022/07/03 14:06:13;;;;;;;1.20;1.10;;;25.60;47.70;;;;;;5060712;27;20600;-48
2022/07/03 14:08:53;;;;;;;1.20;1.10;;;25.60;47.70;;;;;;5071450;27;20585;-49
2022/07/03 14:11:32;;;;;;;1.77;1.30;;;25.60;47.60;;;;;;5079680;27;20960;-50
2022/07/03 14:14:12;;;;;;;1.27;1.00;;;25.60;47.80;;;;;;5087769;28;20512;-48
2022/07/03 14:16:52;;;;;;;1.17;1.07;;;25.60;47.50;;;;;;5061078;27;21137;-48
2022/07/03 14:19:32;;;;;;;1.77;0.77;;;25.60;47.70;;;;;;5091542;27;21136;-48
2022/07/03 14:22:14;;;;;;;1.90;1.13;;;25.60;47.60;;;;;;5087499;27;20524;-49
2022/07/03 14:24:55;;;;;;;1.07;0.97;;;25.60;47.70;;;;;;5088748;27;20538;-48